createdAt,value
2023-04-15T00:00:17.733Z,56.66
2023-04-15T00:05:40.289Z,56.74
2023-04-15T00:11:03.212Z,56.65
2023-04-15T00:16:24.062Z,56.55
2023-04-15T00:21:44.339Z,56.62
2023-04-15T00:27:05.566Z,56.46
2023-04-15T00:32:26.018Z,56.68
2023-04-15T00:37:46.530Z,56.80
2023-04-15T00:43:07.269Z,56.75
2023-04-15T00:48:28.334Z,56.93
2023-04-15T00:53:48.776Z,57.17
2023-04-15T00:59:10.288Z,57.18
2023-04-15T01:04:32.672Z,57.37
2023-04-15T01:09:53.496Z,57.51
2023-04-15T01:15:15.036Z,57.65
2023-04-15T01:20:36.343Z,58.04
2023-04-15T01:25:58.453Z,58.21
2023-04-15T01:31:18.937Z,58.26
2023-04-15T01:36:39.322Z,58.30
2023-04-15T01:42:01.467Z,58.42
2023-04-15T01:47:23.456Z,58.74
2023-04-15T01:52:45.192Z,58.75
2023-04-15T01:58:07.526Z,58.96
2023-04-15T02:03:29.592Z,58.99
2023-04-15T02:08:51.659Z,59.01
2023-04-15T02:14:13.263Z,59.28
2023-04-15T02:19:36.022Z,59.43
2023-04-15T02:24:58.765Z,59.50
2023-04-15T02:30:21.345Z,59.90
2023-04-15T02:35:45.508Z,59.96
2023-04-15T02:41:07.212Z,60.03
2023-04-15T02:46:30.696Z,60.45
2023-04-15T02:51:52.653Z,60.46
2023-04-15T02:57:15.992Z,60.63
2023-04-15T03:02:38.976Z,60.86
2023-04-15T03:08:01.394Z,61.09
2023-04-15T03:13:24.496Z,61.22
2023-04-15T03:18:46.394Z,61.24
2023-04-15T03:24:09.620Z,61.34
2023-04-15T03:29:31.672Z,61.65
2023-04-15T03:34:54.485Z,61.58
2023-04-15T03:40:21.673Z,61.72
2023-04-15T03:45:43.237Z,61.54
2023-04-15T03:51:05.214Z,61.77
2023-04-15T03:56:26.990Z,62.08
2023-04-15T04:01:49.483Z,62.39
2023-04-15T04:07:18.434Z,62.60
2023-04-15T04:12:40.175Z,62.66
2023-04-15T04:18:02.135Z,62.78
2023-04-15T04:23:24.371Z,62.83
2023-04-15T04:28:46.041Z,62.77
2023-04-15T04:34:07.848Z,63.19
2023-04-15T04:39:29.499Z,62.83
2023-04-15T04:44:51.568Z,62.95
2023-04-15T04:50:14.410Z,63.22
2023-04-15T04:55:39.011Z,63.33
2023-04-15T05:01:00.838Z,63.68
2023-04-15T05:06:22.626Z,63.42
2023-04-15T05:11:44.625Z,63.62
2023-04-15T05:17:06.652Z,63.49
2023-04-15T05:22:28.437Z,63.85
2023-04-15T05:27:50.628Z,63.77
2023-04-15T05:33:12.463Z,64.15
2023-04-15T05:38:34.579Z,64.20
2023-04-15T05:43:56.709Z,64.27
2023-04-15T05:49:18.419Z,64.50
2023-04-15T05:54:40.400Z,64.71
2023-04-15T06:00:02.232Z,64.81
2023-04-15T06:05:31.545Z,64.90
2023-04-15T06:10:53.508Z,65.03
2023-04-15T06:16:15.455Z,65.01
2023-04-15T06:21:37.486Z,65.08
2023-04-15T06:26:59.257Z,65.20
2023-04-15T06:32:21.404Z,65.15
2023-04-15T06:37:43.648Z,65.34
2023-04-15T06:43:05.476Z,65.54
2023-04-15T06:48:27.564Z,65.46
2023-04-15T06:53:49.462Z,65.65
2023-04-15T06:59:11.045Z,65.73
2023-04-15T07:04:32.854Z,66.00
2023-04-15T07:09:54.714Z,66.05
2023-04-15T07:15:19.978Z,66.24
2023-04-15T07:20:41.923Z,66.42
2023-04-15T07:26:04.042Z,66.50
2023-04-15T07:31:26.432Z,66.68
2023-04-15T07:36:51.928Z,66.74
2023-04-15T07:42:14.059Z,66.81
2023-04-15T07:47:35.720Z,66.77
2023-04-15T07:52:57.673Z,66.68
2023-04-15T07:58:19.264Z,66.35
2023-04-15T08:03:41.382Z,66.39
2023-04-15T08:09:03.881Z,66.79
2023-04-15T08:14:25.915Z,67.01
2023-04-15T08:19:48.341Z,67.00
2023-04-15T08:25:10.451Z,66.84
2023-04-15T08:30:32.396Z,66.86
2023-04-15T08:35:54.518Z,67.12
2023-04-15T08:41:23.771Z,67.34
2023-04-15T08:46:46.179Z,67.35
2023-04-15T08:52:09.360Z,67.38
2023-04-15T08:57:32.083Z,67.40
2023-04-15T09:02:55.587Z,67.58
2023-04-15T09:08:17.723Z,67.42
2023-04-15T09:13:39.942Z,67.38
2023-04-15T09:19:21.560Z,67.63
2023-04-15T09:24:43.553Z,67.44
2023-04-15T09:30:08.824Z,67.38
2023-04-15T09:35:30.900Z,67.46
2023-04-15T09:40:53.056Z,67.60
2023-04-15T09:46:14.737Z,66.10
2023-04-15T09:51:36.588Z,66.18
2023-04-15T09:57:08.978Z,66.30
2023-04-15T10:02:32.110Z,66.44
2023-04-15T10:07:54.359Z,67.40
2023-04-15T10:13:20.480Z,66.69
2023-04-15T10:18:45.869Z,67.81
2023-04-15T10:24:08.564Z,67.77
2023-04-15T10:29:30.654Z,68.02
2023-04-15T10:34:54.664Z,68.26
2023-04-15T10:40:27.306Z,68.43
2023-04-15T10:45:49.007Z,68.38
2023-04-15T10:51:13.977Z,68.44
2023-04-15T10:56:36.293Z,68.46
2023-04-15T11:02:03.140Z,68.53
2023-04-15T11:07:35.216Z,68.60
2023-04-15T11:12:59.470Z,68.57
2023-04-15T11:18:26.579Z,68.30
2023-04-15T11:23:48.038Z,67.18
2023-04-15T11:29:18.011Z,67.25
2023-04-15T11:34:39.809Z,66.98
2023-04-15T11:40:03.752Z,67.07
2023-04-15T11:45:25.699Z,66.68
2023-04-15T11:50:53.754Z,66.71
2023-04-15T11:56:22.903Z,66.46
2023-04-15T12:01:44.096Z,65.90
2023-04-15T12:07:06.823Z,65.72
2023-04-15T12:12:30.851Z,65.84
2023-04-15T12:17:55.061Z,65.91
2023-04-15T12:23:19.736Z,66.23
2023-04-15T12:28:41.529Z,66.37
2023-04-15T12:34:03.477Z,66.46
2023-04-15T12:39:30.701Z,66.29
2023-04-15T12:44:51.653Z,66.50
2023-04-15T12:58:11.656Z,64.97
2023-04-15T13:03:32.437Z,61.23
2023-04-15T13:08:58.412Z,56.45
2023-04-15T13:14:19.292Z,55.04
2023-04-15T13:19:39.950Z,49.62
2023-04-15T13:25:00.479Z,48.47
2023-04-15T13:30:20.883Z,53.97
2023-04-15T13:35:41.528Z,55.58
2023-04-15T13:41:02.021Z,51.84
2023-04-15T13:46:22.404Z,47.05
2023-04-15T13:51:42.710Z,42.71
2023-04-15T13:57:03.435Z,38.00
2023-04-15T14:02:24.316Z,34.08
2023-04-15T14:07:44.985Z,31.77
2023-04-15T14:13:06.231Z,32.45
2023-04-15T14:18:27.328Z,37.04
2023-04-15T14:23:48.287Z,38.68
2023-04-15T14:29:08.782Z,40.71
2023-04-15T14:34:29.502Z,37.84
2023-04-15T14:39:50.479Z,35.85
2023-04-15T14:45:11.228Z,34.37
2023-04-15T14:50:31.879Z,33.45
2023-04-15T14:55:52.645Z,33.49
2023-04-15T15:01:13.074Z,34.06
2023-04-15T15:06:34.472Z,34.97
2023-04-15T15:11:54.862Z,37.14
2023-04-15T15:17:15.403Z,41.44
2023-04-15T15:22:36.051Z,43.18
2023-04-15T15:27:57.750Z,44.19
2023-04-15T15:33:18.213Z,45.69
2023-04-15T15:38:40.570Z,46.59
2023-04-15T15:44:01.103Z,48.20
2023-04-15T15:49:21.510Z,49.62
2023-04-15T15:54:42.260Z,49.97
2023-04-15T16:05:26.960Z,51.17
2023-04-15T16:10:47.835Z,52.02
2023-04-15T16:16:08.332Z,52.34
2023-04-15T16:21:28.938Z,52.74
2023-04-15T16:26:49.895Z,53.50
2023-04-15T16:32:11.081Z,53.47
2023-04-15T16:37:33.103Z,53.85
2023-04-15T16:42:54.028Z,54.21
2023-04-15T16:48:14.359Z,54.65
2023-04-15T16:53:34.889Z,55.04
2023-04-15T16:58:55.822Z,55.32
2023-04-15T17:04:16.480Z,54.99
2023-04-15T17:09:39.177Z,54.80
2023-04-15T17:15:05.761Z,54.50
2023-04-15T17:20:26.660Z,54.56
2023-04-15T17:25:47.777Z,54.66
2023-04-15T17:31:08.837Z,54.77
2023-04-15T17:36:51.305Z,55.02
2023-04-15T17:42:31.789Z,54.93
2023-04-15T17:48:13.243Z,55.47
2023-04-15T17:53:53.805Z,55.41
2023-04-15T17:59:35.069Z,55.53
2023-04-15T18:05:16.153Z,56.33
2023-04-15T18:10:56.759Z,55.68
2023-04-15T18:16:37.092Z,55.73
2023-04-15T18:22:17.949Z,56.11
2023-04-15T18:27:41.586Z,57.07
2023-04-15T18:33:02.549Z,57.50
2023-04-15T18:38:23.786Z,57.87
2023-04-15T18:43:44.375Z,57.79
2023-04-15T18:49:05.032Z,57.77
2023-04-15T18:54:25.568Z,58.02
2023-04-15T18:59:46.472Z,58.10
2023-04-15T19:05:07.185Z,58.17
2023-04-15T19:10:30.525Z,57.68
2023-04-15T19:15:51.803Z,57.84
2023-04-15T19:21:12.994Z,57.42
2023-04-15T19:26:33.752Z,57.47
2023-04-15T19:31:55.018Z,57.56
2023-04-15T19:37:16.100Z,57.93
2023-04-15T19:42:36.762Z,58.22
2023-04-15T19:47:57.930Z,58.29
2023-04-15T19:53:18.029Z,58.35
2023-04-15T19:58:38.730Z,58.18
2023-04-15T20:03:59.655Z,58.16
2023-04-15T20:09:20.386Z,58.04
2023-04-15T20:14:41.501Z,58.15
2023-04-15T20:20:03.955Z,58.21
2023-04-15T20:25:24.561Z,58.27
2023-04-15T20:30:45.862Z,58.61
2023-04-15T20:36:06.972Z,58.72
2023-04-15T20:41:28.028Z,58.57
2023-04-15T20:46:48.499Z,58.56
2023-04-15T20:52:09.930Z,58.91
2023-04-15T20:57:30.402Z,58.96
2023-04-15T21:02:52.834Z,59.03
2023-04-15T21:08:51.126Z,58.99
2023-04-15T21:14:27.734Z,59.13
2023-04-15T21:20:07.895Z,59.25
2023-04-15T21:25:31.208Z,59.37
2023-04-15T21:30:54.045Z,59.42
2023-04-15T21:36:15.159Z,59.54
2023-04-15T21:41:36.981Z,59.89
2023-04-15T21:46:57.528Z,60.01
2023-04-15T21:52:18.200Z,60.08
2023-04-15T21:57:38.744Z,60.08
2023-04-15T22:03:02.767Z,60.21
2023-04-15T22:08:24.158Z,60.12
2023-04-15T22:13:45.401Z,60.13
2023-04-15T22:19:06.384Z,60.05
2023-04-15T22:24:38.053Z,60.32
2023-04-15T22:30:01.222Z,60.44
2023-04-15T22:35:21.973Z,60.67
2023-04-15T22:40:42.707Z,60.91
2023-04-15T22:46:03.150Z,60.94
2023-04-15T22:51:26.804Z,61.19
2023-04-15T22:56:47.320Z,61.37
2023-04-15T23:02:07.982Z,61.31
2023-04-15T23:07:29.127Z,61.09
2023-04-15T23:12:49.526Z,61.17
2023-04-15T23:18:10.435Z,61.37
2023-04-15T23:23:31.200Z,61.52
2023-04-15T23:28:51.863Z,61.80
2023-04-15T23:34:12.475Z,61.75
2023-04-15T23:39:33.082Z,61.72
2023-04-15T23:44:53.408Z,61.89
2023-04-15T23:50:15.250Z,62.17
2023-04-15T23:55:36.220Z,62.11
